Strona główna
METAR-TAF:

METAR-TAF

Lotnisko :

Schenectady County Airport

Schenectady, Nowy Jork, Stany Zjednoczone

Szerokość geograficzna: 42-51N, Długość geograficzna: 073-56W, wysokość: 115 m

Aktualna obserwacja pogody

Raport powstał 28 minut temu, godzina 00:58 UTC
Wiatr 5 kt od zachodnio-północny zachód
Temperatura -9°C
Wilgotność 57%
Ciśnienie 1029 hPa
Widzialność: 16.1 km
bezchmurnie

METAR: KSCH 210058Z 29005KT 10SM CLR M09/M16 A3039

czas: 20:26 (01:26 UTC)


TAF: brakujący

Obserwacja i prognoza pogody dla ponad 4000 lotnisk (raport METAR i TAF).

Dostępne stacje oznaczono żółtymi i czerwonymi punktami na mapie.

Najedź kursorem aby zobaczyć nazwę stacji.

Kliknij aby zobaczyć obserwacje i prognozy pogody.

Aby zmienić mapę: kliknij na zielony przycisk z czarnym krzyżykiem, aby powiększyć; na zielony przycisk z myślnikiem, aby pomniejszyć; na zielone strzałki, aby przejść do map sąsiednich.


METAR-TAF: